createdAt,value
2023-04-21T00:00:54.270Z,25.08
2023-04-21T00:03:23.740Z,30.52
2023-04-21T00:05:50.793Z,28.25
2023-04-21T00:08:17.965Z,28.00
2023-04-21T00:10:44.997Z,26.52
2023-04-21T00:13:11.396Z,29.20
2023-04-21T00:15:37.923Z,30.48
2023-04-21T00:18:04.781Z,31.65
2023-04-21T00:20:31.522Z,32.40
2023-04-21T00:22:59.083Z,27.27
2023-04-21T00:25:25.902Z,29.05
2023-04-21T00:27:52.297Z,30.92
2023-04-21T00:30:18.745Z,30.63
2023-04-21T00:32:45.195Z,29.52
2023-04-21T00:35:11.628Z,32.22
2023-04-21T00:37:38.060Z,34.22
2023-04-21T00:40:05.159Z,31.55
2023-04-21T00:42:31.581Z,34.15
2023-04-21T00:44:57.929Z,36.15
2023-04-21T00:47:25.347Z,32.47
2023-04-21T00:49:51.791Z,33.58
2023-04-21T00:52:18.628Z,33.60
2023-04-21T00:54:45.039Z,39.17
2023-04-21T00:57:11.711Z,35.70
2023-04-21T00:59:38.187Z,34.08
2023-04-21T01:02:04.672Z,34.45
2023-04-21T01:04:36.942Z,36.00
2023-04-21T01:07:04.605Z,33.70
2023-04-21T01:09:31.063Z,37.85
2023-04-21T01:12:02.208Z,40.58
2023-04-21T01:14:28.606Z,35.72
2023-04-21T01:16:55.165Z,33.38
2023-04-21T01:19:22.902Z,34.53
2023-04-21T01:21:49.321Z,33.38
2023-04-21T01:24:15.676Z,36.00
2023-04-21T01:26:42.213Z,33.38
2023-04-21T01:29:08.645Z,35.78
2023-04-21T01:31:35.104Z,34.80
2023-04-21T01:34:05.067Z,31.15
2023-04-21T01:36:31.899Z,35.67
2023-04-21T01:38:58.304Z,38.65
2023-04-21T01:41:24.684Z,34.35
2023-04-21T01:43:51.096Z,34.55
2023-04-21T01:46:20.528Z,31.25
2023-04-21T01:48:46.970Z,34.03
2023-04-21T01:51:13.393Z,35.40
2023-04-21T01:53:39.770Z,34.33
2023-04-21T01:56:06.491Z,35.78
2023-04-21T01:58:32.907Z,36.33
2023-04-21T02:00:59.404Z,37.78
2023-04-21T02:03:25.865Z,35.65
2023-04-21T02:05:52.373Z,35.92
2023-04-21T02:08:18.800Z,33.22
2023-04-21T02:10:45.304Z,32.30
2023-04-21T02:13:11.726Z,35.15
2023-04-21T02:15:38.118Z,37.95
2023-04-21T02:18:04.574Z,36.25
2023-04-21T02:20:31.052Z,34.95
2023-04-21T02:22:57.416Z,32.10
2023-04-21T02:25:23.853Z,34.78
2023-04-21T02:27:50.235Z,33.67
2023-04-21T02:30:16.697Z,34.65
2023-04-21T02:32:43.302Z,31.85
2023-04-21T02:35:09.909Z,35.83
2023-04-21T02:37:36.366Z,35.28
2023-04-21T02:40:03.375Z,31.17
2023-04-21T02:42:29.729Z,38.13
2023-04-21T02:44:56.077Z,33.90
2023-04-21T02:47:22.504Z,33.08
2023-04-21T02:49:48.969Z,34.00
2023-04-21T02:52:15.995Z,35.78
2023-04-21T02:54:42.437Z,36.42
2023-04-21T02:57:08.873Z,37.10
2023-04-21T02:59:35.388Z,35.90
2023-04-21T03:02:01.845Z,34.63
2023-04-21T03:04:28.372Z,33.63
2023-04-21T03:06:55.302Z,33.65
2023-04-21T03:09:22.170Z,33.92
2023-04-21T03:11:48.521Z,33.50
2023-04-21T03:14:15.091Z,32.95
2023-04-21T03:16:41.573Z,37.88
2023-04-21T03:19:08.067Z,38.35
2023-04-21T03:21:36.895Z,40.25
2023-04-21T03:24:03.461Z,41.33
2023-04-21T03:26:29.844Z,35.95
2023-04-21T03:28:56.215Z,39.47
2023-04-21T03:31:22.726Z,37.90
2023-04-21T03:33:49.213Z,35.63
2023-04-21T03:36:15.649Z,39.47
2023-04-21T03:38:42.069Z,36.63
2023-04-21T03:41:08.487Z,37.00
2023-04-21T03:43:36.181Z,39.75
2023-04-21T03:46:03.324Z,39.85
2023-04-21T03:48:29.872Z,40.25
2023-04-21T03:50:56.237Z,41.38
2023-04-21T03:53:22.702Z,37.03
2023-04-21T03:55:51.853Z,39.95
2023-04-21T03:58:18.657Z,36.80
2023-04-21T04:00:45.160Z,35.33
2023-04-21T04:03:11.761Z,36.38
2023-04-21T04:05:38.534Z,34.45
2023-04-21T04:08:05.379Z,33.55
2023-04-21T04:10:31.913Z,38.92
2023-04-21T04:12:58.464Z,35.35
2023-04-21T04:15:24.929Z,32.67
2023-04-21T04:17:51.406Z,36.58
2023-04-21T04:20:17.931Z,37.85
2023-04-21T04:22:44.296Z,34.08
2023-04-21T04:25:12.787Z,39.30
2023-04-21T04:27:39.200Z,38.03
2023-04-21T04:30:06.106Z,40.55
2023-04-21T04:32:33.466Z,35.15
2023-04-21T04:34:59.896Z,37.85
2023-04-21T04:37:26.627Z,40.40
2023-04-21T04:39:53.665Z,38.78
2023-04-21T04:42:22.990Z,44.00
2023-04-21T04:44:53.236Z,41.17
2023-04-21T04:47:19.712Z,42.97
2023-04-21T04:49:46.943Z,38.47
2023-04-21T04:52:13.410Z,42.95
2023-04-21T04:54:39.853Z,38.72
2023-04-21T04:57:06.320Z,39.95
2023-04-21T04:59:32.725Z,41.28
2023-04-21T05:01:59.234Z,39.75
2023-04-21T05:04:26.086Z,38.90
2023-04-21T05:06:53.042Z,41.67
2023-04-21T05:09:19.433Z,39.08
2023-04-21T05:11:45.842Z,40.42
2023-04-21T05:14:12.282Z,38.17
2023-04-21T05:16:38.812Z,38.63
2023-04-21T05:19:05.243Z,35.08
2023-04-21T05:21:31.675Z,35.60
2023-04-21T05:23:59.203Z,37.63
2023-04-21T05:26:27.471Z,40.08
2023-04-21T05:28:57.901Z,45.17
2023-04-21T05:31:24.868Z,45.70
2023-04-21T05:33:51.496Z,45.70
2023-04-21T05:36:17.991Z,45.35
2023-04-21T05:38:44.423Z,48.13
2023-04-21T05:41:10.876Z,53.92
2023-04-21T05:43:37.298Z,56.85
2023-04-21T05:46:08.921Z,56.30
2023-04-21T05:48:35.420Z,54.15
2023-04-21T05:51:11.850Z,59.00
2023-04-21T05:53:39.172Z,56.35
2023-04-21T05:56:06.475Z,58.10
2023-04-21T05:58:33.853Z,57.90
2023-04-21T06:01:00.405Z,66.00
2023-04-21T06:03:26.966Z,61.47
2023-04-21T06:05:55.070Z,63.10
2023-04-21T06:08:24.635Z,64.00
2023-04-21T06:10:51.063Z,62.70
2023-04-21T06:13:17.425Z,61.95
2023-04-21T06:15:43.887Z,64.75
2023-04-21T06:18:10.317Z,55.95
2023-04-21T06:20:36.810Z,64.38
2023-04-21T06:23:03.240Z,60.30
2023-04-21T06:25:30.311Z,51.45
2023-04-21T06:27:56.907Z,56.15
2023-04-21T06:30:23.533Z,51.55
2023-04-21T06:32:50.077Z,62.10
2023-04-21T06:35:17.273Z,57.47
2023-04-21T06:37:43.702Z,55.85
2023-04-21T06:40:12.354Z,60.78
2023-04-21T06:42:38.765Z,53.70
2023-04-21T06:45:07.046Z,55.33
2023-04-21T06:47:33.583Z,52.25
2023-04-21T06:49:59.983Z,56.65
2023-04-21T06:52:26.389Z,57.25
2023-04-21T06:54:52.811Z,55.70
2023-04-21T06:57:19.241Z,51.88
2023-04-21T06:59:45.674Z,54.03
2023-04-21T07:02:12.116Z,53.28
2023-04-21T07:04:38.615Z,50.80
2023-04-21T07:07:05.069Z,53.40
2023-04-21T07:09:33.724Z,50.55
2023-04-21T07:12:01.028Z,49.90
2023-04-21T07:14:27.424Z,52.75
2023-04-21T07:16:55.457Z,51.42
2023-04-21T07:19:22.021Z,50.03
2023-04-21T07:21:48.568Z,55.80
2023-04-21T07:24:14.930Z,48.38
2023-04-21T07:26:41.286Z,57.38
2023-04-21T07:29:07.800Z,49.47
2023-04-21T07:31:34.412Z,57.05
2023-04-21T07:34:01.127Z,47.53
2023-04-21T07:36:29.777Z,50.90
2023-04-21T07:38:57.451Z,50.25
2023-04-21T07:41:23.843Z,53.33
2023-04-21T07:43:51.927Z,47.97
2023-04-21T07:46:20.283Z,47.35
2023-04-21T07:48:46.757Z,45.78
2023-04-21T07:51:13.212Z,49.03
2023-04-21T07:53:39.632Z,47.55
2023-04-21T07:56:07.410Z,47.35
2023-04-21T07:58:33.781Z,42.45
2023-04-21T08:01:00.260Z,43.97
2023-04-21T08:03:26.890Z,46.22
2023-04-21T08:05:53.559Z,46.13
2023-04-21T08:08:21.912Z,40.30
2023-04-21T08:10:48.366Z,41.65
2023-04-21T08:13:14.820Z,45.60
2023-04-21T08:15:41.577Z,41.53
2023-04-21T08:18:09.364Z,40.47
2023-04-21T08:20:35.995Z,43.88
2023-04-21T08:23:02.481Z,44.05
2023-04-21T08:25:28.958Z,41.58
2023-04-21T08:27:55.440Z,45.67
2023-04-21T08:30:21.840Z,42.83
2023-04-21T08:32:48.502Z,42.95
2023-04-21T08:35:14.975Z,42.35
2023-04-21T08:37:41.730Z,48.78
2023-04-21T08:40:08.516Z,43.42
2023-04-21T08:42:35.703Z,47.90
2023-04-21T08:45:02.161Z,41.05
2023-04-21T08:47:28.957Z,43.75
2023-04-21T08:49:56.785Z,41.83
2023-04-21T08:52:23.142Z,42.35
2023-04-21T08:54:51.915Z,45.35
2023-04-21T08:57:19.080Z,44.10
2023-04-21T08:59:45.713Z,44.72
2023-04-21T09:02:17.109Z,41.58
2023-04-21T09:04:45.952Z,42.25
2023-04-21T09:07:13.578Z,39.20
2023-04-21T09:09:53.502Z,40.53
2023-04-21T09:12:20.047Z,43.40
2023-04-21T09:14:46.545Z,43.97
2023-04-21T09:17:16.242Z,43.70
2023-04-21T09:19:43.090Z,45.25
2023-04-21T09:22:09.590Z,40.72
2023-04-21T09:24:36.094Z,39.13
2023-04-21T09:27:03.773Z,40.95
2023-04-21T09:29:30.454Z,41.30
2023-04-21T09:31:57.113Z,37.45
2023-04-21T09:34:25.565Z,40.97
2023-04-21T09:37:02.688Z,39.50
2023-04-21T09:39:43.282Z,41.55
2023-04-21T09:42:19.308Z,39.33
2023-04-21T09:44:52.449Z,37.95
2023-04-21T09:47:29.353Z,38.95
2023-04-21T09:49:56.142Z,40.45
2023-04-21T09:52:23.346Z,41.40
2023-04-21T09:54:52.117Z,41.42
2023-04-21T09:57:22.970Z,36.63
2023-04-21T09:59:51.740Z,37.17
2023-04-21T10:02:19.339Z,35.65
2023-04-21T10:04:46.648Z,39.88
2023-04-21T10:07:13.222Z,40.00
2023-04-21T10:09:49.209Z,36.83
2023-04-21T10:12:15.936Z,35.25
2023-04-21T10:14:42.418Z,35.72
2023-04-21T10:17:10.370Z,39.47
2023-04-21T10:19:41.580Z,40.13
2023-04-21T10:22:09.633Z,41.65
2023-04-21T10:24:40.233Z,39.22
2023-04-21T10:27:10.263Z,38.60
2023-04-21T10:29:54.796Z,42.10
2023-04-21T10:32:40.624Z,39.60
2023-04-21T10:35:13.900Z,41.33
2023-04-21T10:37:41.155Z,45.67
2023-04-21T10:40:09.397Z,41.08
2023-04-21T10:42:37.104Z,38.80
2023-04-21T10:45:08.725Z,38.63
2023-04-21T10:47:44.374Z,39.83
2023-04-21T10:50:30.196Z,37.80
2023-04-21T10:53:08.759Z,40.40
2023-04-21T10:55:35.416Z,36.65
2023-04-21T10:58:03.579Z,43.00
2023-04-21T11:00:30.215Z,38.67
2023-04-21T11:03:01.000Z,39.88
2023-04-21T11:05:29.433Z,37.60
2023-04-21T11:08:05.337Z,40.55
2023-04-21T11:10:55.231Z,37.55
2023-04-21T11:13:26.713Z,40.35
2023-04-21T11:16:01.404Z,38.63
2023-04-21T11:18:44.966Z,41.97
2023-04-21T11:21:17.995Z,41.33
2023-04-21T11:23:55.553Z,37.33
2023-04-21T11:26:37.729Z,38.88
2023-04-21T11:29:06.403Z,42.58
2023-04-21T11:31:33.038Z,39.30
2023-04-21T11:34:00.638Z,37.97
2023-04-21T11:36:27.329Z,37.35
2023-04-21T11:38:53.781Z,35.92
2023-04-21T11:41:23.916Z,36.70
2023-04-21T11:43:51.801Z,39.35
2023-04-21T11:46:19.199Z,37.03
2023-04-21T11:48:45.748Z,37.85
2023-04-21T11:51:16.686Z,40.40
2023-04-21T11:53:43.162Z,36.50
2023-04-21T11:56:11.790Z,35.65
2023-04-21T11:58:39.621Z,37.53
2023-04-21T12:01:09.486Z,37.15
2023-04-21T12:03:36.176Z,36.03
2023-04-21T12:06:02.764Z,37.35
2023-04-21T12:08:30.607Z,37.22
2023-04-21T12:10:59.171Z,40.45
2023-04-21T12:13:28.184Z,37.50
2023-04-21T12:15:54.581Z,42.08
2023-04-21T12:18:21.304Z,37.97
2023-04-21T12:20:52.195Z,35.22
2023-04-21T12:23:18.903Z,37.53
2023-04-21T12:25:46.911Z,36.00
2023-04-21T12:28:16.641Z,38.67
2023-04-21T12:30:43.406Z,36.28
2023-04-21T12:33:11.309Z,37.80
2023-04-21T12:35:37.750Z,38.70
2023-04-21T12:38:04.117Z,37.00
2023-04-21T12:40:30.503Z,33.72
2023-04-21T12:42:56.895Z,38.92
2023-04-21T12:45:23.400Z,37.97
2023-04-21T12:47:50.090Z,38.22
2023-04-21T12:50:16.582Z,33.40
2023-04-21T12:52:42.964Z,38.83
2023-04-21T12:55:09.426Z,38.20
2023-04-21T12:57:35.818Z,35.58
2023-04-21T13:00:02.247Z,36.67
2023-04-21T13:02:30.862Z,34.67
2023-04-21T13:04:57.553Z,38.90
2023-04-21T13:07:26.713Z,34.25
2023-04-21T13:09:53.231Z,39.15
2023-04-21T13:12:19.647Z,35.25
2023-04-21T13:14:46.200Z,36.97
2023-04-21T13:17:13.145Z,36.58
2023-04-21T13:19:39.898Z,39.92
2023-04-21T13:22:06.552Z,37.67
2023-04-21T13:24:33.236Z,30.35
2023-04-21T13:27:01.659Z,31.65
2023-04-21T13:29:33.968Z,35.15
2023-04-21T13:32:06.201Z,34.67
2023-04-21T13:34:33.902Z,35.35
2023-04-21T13:37:01.459Z,35.70
2023-04-21T13:39:28.022Z,35.20
2023-04-21T13:41:54.497Z,39.05
2023-04-21T13:44:23.963Z,37.67
2023-04-21T13:46:52.812Z,31.38
2023-04-21T13:49:19.531Z,32.67
2023-04-21T13:51:45.967Z,32.13
2023-04-21T13:54:12.315Z,31.02
2023-04-21T13:56:38.796Z,30.70
2023-04-21T13:59:06.474Z,28.55
2023-04-21T14:01:32.976Z,29.95
2023-04-21T14:03:59.613Z,29.83
2023-04-21T14:06:26.420Z,29.63
2023-04-21T14:08:53.286Z,27.95
2023-04-21T14:11:19.805Z,32.28
2023-04-21T14:14:00.726Z,29.60
2023-04-21T14:16:33.239Z,28.67
2023-04-21T14:18:59.716Z,27.10
2023-04-21T14:21:26.120Z,30.25
2023-04-21T14:23:52.572Z,29.13
2023-04-21T14:26:19.063Z,28.77
2023-04-21T14:28:45.787Z,30.48
2023-04-21T14:31:12.255Z,31.73
2023-04-21T14:33:38.792Z,33.08
2023-04-21T14:36:05.377Z,29.67
2023-04-21T14:38:33.665Z,25.65
2023-04-21T14:41:00.220Z,27.77
2023-04-21T14:43:26.637Z,27.25
2023-04-21T14:45:53.251Z,28.75
2023-04-21T14:48:21.009Z,27.63
2023-04-21T14:50:47.550Z,31.48
2023-04-21T14:53:14.031Z,29.02
2023-04-21T14:55:40.487Z,25.52
2023-04-21T14:58:07.376Z,28.67
2023-04-21T15:00:34.890Z,28.00
2023-04-21T15:03:01.509Z,30.98
2023-04-21T15:05:28.341Z,28.63
2023-04-21T15:07:54.818Z,28.80
2023-04-21T15:10:21.216Z,27.83
2023-04-21T15:12:47.712Z,31.15
2023-04-21T15:15:14.155Z,30.48
2023-04-21T15:17:40.699Z,29.58
2023-04-21T15:20:07.578Z,31.25
2023-04-21T15:22:33.986Z,28.10
2023-04-21T15:25:00.472Z,28.10
2023-04-21T15:27:26.911Z,27.23
2023-04-21T15:29:53.371Z,30.67
2023-04-21T15:32:19.797Z,30.50
2023-04-21T15:34:46.269Z,27.25
2023-04-21T15:37:12.772Z,28.92
2023-04-21T15:39:39.353Z,28.88
2023-04-21T15:42:06.183Z,32.53
2023-04-21T15:44:33.987Z,29.40
2023-04-21T15:47:00.790Z,30.45
2023-04-21T15:49:27.298Z,26.27
2023-04-21T15:51:53.715Z,32.28
2023-04-21T15:54:20.234Z,27.60
2023-04-21T15:56:46.792Z,31.92
2023-04-21T15:59:13.181Z,41.08
2023-04-21T16:01:39.756Z,30.17
2023-04-21T16:04:06.690Z,30.92
2023-04-21T16:06:33.426Z,32.50
2023-04-21T16:08:59.887Z,31.60
2023-04-21T16:11:27.940Z,31.73
2023-04-21T16:13:54.383Z,34.65
2023-04-21T16:16:20.861Z,31.83
2023-04-21T16:18:47.329Z,31.10
2023-04-21T16:21:13.752Z,29.70
2023-04-21T16:23:40.342Z,30.35
2023-04-21T16:26:08.911Z,33.13
2023-04-21T16:28:35.455Z,30.73
2023-04-21T16:31:02.050Z,30.60
2023-04-21T16:33:28.525Z,33.63
2023-04-21T16:35:57.242Z,30.95
2023-04-21T16:38:24.438Z,33.10
2023-04-21T16:40:51.450Z,27.80
2023-04-21T16:43:17.964Z,30.92
2023-04-21T16:45:44.482Z,35.10
2023-04-21T16:48:11.028Z,39.50
2023-04-21T16:50:38.517Z,35.08
2023-04-21T16:53:04.982Z,37.45
2023-04-21T16:55:31.467Z,35.13
2023-04-21T16:57:59.042Z,36.75
2023-04-21T17:00:25.620Z,35.15
2023-04-21T17:02:52.134Z,37.75
2023-04-21T17:05:18.569Z,33.53
2023-04-21T17:07:45.086Z,42.33
2023-04-21T17:10:11.576Z,32.10
2023-04-21T17:12:38.908Z,32.40
2023-04-21T17:15:06.058Z,33.47
2023-04-21T17:17:46.997Z,35.47
2023-04-21T17:20:14.320Z,37.90
2023-04-21T17:22:41.715Z,31.17
2023-04-21T17:25:09.163Z,31.55
2023-04-21T17:27:37.122Z,32.70
2023-04-21T17:30:05.040Z,32.47
2023-04-21T17:32:33.793Z,33.53
2023-04-21T17:35:00.919Z,31.40
2023-04-21T17:37:28.818Z,33.50
2023-04-21T17:39:55.366Z,35.05
2023-04-21T17:42:21.851Z,39.00
2023-04-21T17:44:48.422Z,30.48
2023-04-21T17:47:14.967Z,31.80
2023-04-21T17:49:41.427Z,35.60
2023-04-21T17:52:07.805Z,35.22
2023-04-21T17:54:34.234Z,33.30
2023-04-21T17:57:01.824Z,37.88
2023-04-21T17:59:28.268Z,32.50
2023-04-21T18:01:55.167Z,33.67
2023-04-21T18:04:24.174Z,34.28
2023-04-21T18:06:51.400Z,32.72
2023-04-21T18:09:25.400Z,33.30
2023-04-21T18:11:51.865Z,36.80
2023-04-21T18:14:19.176Z,35.65
2023-04-21T18:16:45.595Z,38.88
2023-04-21T18:19:12.188Z,37.03
2023-04-21T18:21:41.457Z,37.30
2023-04-21T18:24:07.903Z,37.17
2023-04-21T18:26:34.378Z,35.70
2023-04-21T18:29:02.747Z,36.97
2023-04-21T18:31:29.451Z,38.15
2023-04-21T18:33:57.249Z,40.35
2023-04-21T18:36:23.785Z,38.40
2023-04-21T18:38:50.164Z,39.10
2023-04-21T18:41:16.699Z,41.10
2023-04-21T18:43:43.151Z,43.53
2023-04-21T18:46:09.572Z,47.35
2023-04-21T18:48:36.229Z,49.40
2023-04-21T18:51:02.927Z,49.53
2023-04-21T18:53:29.335Z,46.78
2023-04-21T18:55:55.742Z,46.33
2023-04-21T18:58:22.420Z,46.72
2023-04-21T19:00:48.899Z,42.50
2023-04-21T19:03:15.450Z,37.45
2023-04-21T19:05:42.254Z,34.80
2023-04-21T19:08:09.741Z,33.58
2023-04-21T19:10:37.712Z,32.97
2023-04-21T19:13:04.397Z,32.50
2023-04-21T19:15:31.018Z,26.27
2023-04-21T19:17:57.493Z,26.05
2023-04-21T19:20:23.913Z,17.35
2023-04-21T19:22:50.300Z,17.20
2023-04-21T19:25:17.505Z,18.05
2023-04-21T19:27:44.269Z,15.52
2023-04-21T19:30:10.926Z,16.65
2023-04-21T19:32:37.450Z,14.75
2023-04-21T19:35:05.186Z,15.65
2023-04-21T19:37:34.479Z,20.48
2023-04-21T19:40:02.523Z,16.17
2023-04-21T19:42:30.385Z,18.15
2023-04-21T19:44:56.783Z,17.58
2023-04-21T19:47:23.225Z,18.25
2023-04-21T19:49:49.622Z,19.52
2023-04-21T19:52:16.134Z,16.48
2023-04-21T19:54:42.498Z,19.30
2023-04-21T19:57:08.924Z,16.88
2023-04-21T19:59:36.687Z,15.85
2023-04-21T20:02:03.890Z,17.05
2023-04-21T20:04:30.990Z,20.67
2023-04-21T20:06:57.429Z,20.67
2023-04-21T20:09:23.912Z,20.63
2023-04-21T20:11:50.368Z,21.52
2023-04-21T20:14:18.021Z,22.83
2023-04-21T20:16:46.208Z,23.20
2023-04-21T20:19:12.908Z,22.40
2023-04-21T20:21:39.341Z,17.17
2023-04-21T20:24:05.912Z,13.50
2023-04-21T20:26:32.413Z,14.82
2023-04-21T20:28:58.808Z,11.10
2023-04-21T20:31:25.497Z,14.20
2023-04-21T20:33:52.172Z,11.05
2023-04-21T20:36:18.678Z,12.57
2023-04-21T20:38:49.574Z,10.43
2023-04-21T20:41:16.347Z,10.40
2023-04-21T20:43:46.762Z,10.15
2023-04-21T20:46:13.735Z,9.43
2023-04-21T20:48:40.894Z,9.75
2023-04-21T20:51:08.148Z,9.63
2023-04-21T20:53:34.596Z,9.93
2023-04-21T20:56:01.120Z,9.98
2023-04-21T20:58:27.506Z,8.82
2023-04-21T21:00:53.930Z,8.35
2023-04-21T21:03:20.859Z,11.82
2023-04-21T21:05:47.759Z,8.15
2023-04-21T21:08:15.028Z,8.27
2023-04-21T21:10:41.497Z,11.40
2023-04-21T21:13:07.877Z,9.13
2023-04-21T21:15:34.255Z,7.18
2023-04-21T21:18:00.949Z,9.32
2023-04-21T21:20:27.460Z,9.80
2023-04-21T21:22:54.070Z,13.07
2023-04-21T21:25:20.608Z,10.27
2023-04-21T21:27:46.996Z,8.55
2023-04-21T21:30:13.471Z,10.45
2023-04-21T21:32:39.895Z,11.57
2023-04-21T21:35:09.316Z,8.77
2023-04-21T21:37:36.312Z,7.95
2023-04-21T21:40:02.732Z,13.85
2023-04-21T21:42:29.152Z,8.75
2023-04-21T21:44:55.620Z,7.53
2023-04-21T21:47:22.057Z,9.75
2023-04-21T21:49:48.806Z,9.60
2023-04-21T21:52:15.242Z,10.55
2023-04-21T21:54:41.688Z,10.73
2023-04-21T21:57:08.349Z,11.93
2023-04-21T21:59:34.710Z,15.10
2023-04-21T22:02:01.248Z,14.23
2023-04-21T22:04:28.025Z,13.57
2023-04-21T22:06:54.534Z,13.95
2023-04-21T22:09:21.222Z,13.63
2023-04-21T22:11:47.601Z,12.60
2023-04-21T22:14:22.737Z,14.30
2023-04-21T22:16:51.091Z,12.50
2023-04-21T22:19:20.456Z,13.48
2023-04-21T22:21:46.973Z,12.90
2023-04-21T22:24:13.617Z,12.77
2023-04-21T22:26:40.394Z,14.95
2023-04-21T22:29:06.926Z,13.00
2023-04-21T22:31:33.418Z,13.82
2023-04-21T22:33:59.937Z,15.07
2023-04-21T22:36:26.396Z,15.13
2023-04-21T22:38:52.807Z,14.70
2023-04-21T22:41:19.183Z,13.18
2023-04-21T22:43:45.587Z,13.80
2023-04-21T22:46:12.466Z,15.05
2023-04-21T22:48:38.877Z,13.18
2023-04-21T22:51:07.082Z,14.30
2023-04-21T22:53:33.706Z,13.13
2023-04-21T22:56:00.164Z,15.13
2023-04-21T22:58:26.627Z,15.82
2023-04-21T23:00:53.071Z,12.15
2023-04-21T23:03:19.571Z,16.45
2023-04-21T23:05:46.100Z,14.20
2023-04-21T23:08:12.490Z,13.27
2023-04-21T23:10:38.909Z,16.40
2023-04-21T23:13:05.271Z,15.98
2023-04-21T23:15:32.015Z,16.83
2023-04-21T23:17:58.462Z,15.15
2023-04-21T23:20:24.911Z,15.60
2023-04-21T23:22:51.314Z,14.48
2023-04-21T23:25:17.851Z,17.17
2023-04-21T23:27:44.265Z,14.90
2023-04-21T23:30:11.232Z,15.95
2023-04-21T23:32:37.969Z,15.48
2023-04-21T23:35:04.810Z,16.70
2023-04-21T23:37:31.273Z,15.13
2023-04-21T23:39:57.685Z,17.33
2023-04-21T23:42:24.076Z,15.32
2023-04-21T23:44:50.553Z,14.38
2023-04-21T23:47:16.985Z,15.57
2023-04-21T23:49:43.378Z,14.40
2023-04-21T23:52:10.167Z,14.48
2023-04-21T23:54:36.562Z,13.70
2023-04-21T23:57:03.414Z,14.73
2023-04-21T23:59:29.811Z,19.65
